createdAt,value
2022-12-27T00:02:03.267Z,3.90
2022-12-27T00:04:30.156Z,4.00
2022-12-27T00:06:57.243Z,4.00
2022-12-27T00:09:24.246Z,3.90
2022-12-27T00:11:56.322Z,3.90
2022-12-27T00:14:29.092Z,3.90
2022-12-27T00:16:56.185Z,3.90
2022-12-27T00:19:23.222Z,3.80
2022-12-27T00:21:50.206Z,3.70
2022-12-27T00:24:17.973Z,3.80
2022-12-27T00:26:44.883Z,3.80
2022-12-27T00:29:11.765Z,3.70
2022-12-27T00:31:38.710Z,3.80
2022-12-27T00:34:07.961Z,3.70
2022-12-27T00:36:35.295Z,3.70
2022-12-27T00:39:02.486Z,3.80
2022-12-27T00:41:29.446Z,3.80
2022-12-27T00:43:59.196Z,3.70
2022-12-27T00:46:26.266Z,3.70
2022-12-27T00:48:53.535Z,3.70
2022-12-27T00:51:22.797Z,3.70
2022-12-27T00:53:50.562Z,3.70
2022-12-27T00:56:20.033Z,3.70
2022-12-27T00:58:47.123Z,3.70
2022-12-27T01:01:19.220Z,3.70
2022-12-27T01:03:46.908Z,3.70
2022-12-27T01:06:18.762Z,3.70
2022-12-27T01:08:46.356Z,3.70
2022-12-27T01:11:14.180Z,3.70
2022-12-27T01:13:41.494Z,3.80
2022-12-27T01:16:12.759Z,3.80
2022-12-27T01:18:39.707Z,3.80
2022-12-27T01:21:13.772Z,3.90
2022-12-27T01:23:40.746Z,3.90
2022-12-27T01:26:10.568Z,3.90
2022-12-27T01:28:37.509Z,3.90
2022-12-27T01:31:05.981Z,3.90
2022-12-27T01:33:32.928Z,3.90
2022-12-27T01:36:14.758Z,3.90
2022-12-27T01:38:43.367Z,3.90
2022-12-27T01:41:47.798Z,3.90
2022-12-27T01:44:33.346Z,3.90
2022-12-27T01:47:00.838Z,4.00
2022-12-27T01:49:27.746Z,4.10
2022-12-27T01:51:54.632Z,4.10
2022-12-27T01:54:21.535Z,4.10
2022-12-27T01:56:48.440Z,4.20
2022-12-27T01:59:15.515Z,4.10
2022-12-27T02:04:17.163Z,4.10
2022-12-27T02:06:44.059Z,4.20
2022-12-27T02:09:22.523Z,4.20
2022-12-27T02:11:53.160Z,4.10
2022-12-27T02:14:58.756Z,4.20
2022-12-27T02:17:27.739Z,4.20
2022-12-27T02:20:06.790Z,4.20
2022-12-27T02:23:01.591Z,4.20
2022-12-27T02:26:05.506Z,4.20
2022-12-27T02:29:03.475Z,4.20
2022-12-27T02:32:07.974Z,4.30
2022-12-27T02:35:01.056Z,4.30
2022-12-27T02:37:30.066Z,4.40
2022-12-27T02:39:57.020Z,4.30
2022-12-27T02:42:42.533Z,4.30
2022-12-27T02:45:35.642Z,4.30
2022-12-27T02:48:21.050Z,4.30
2022-12-27T02:51:17.763Z,4.30
2022-12-27T02:54:05.750Z,4.30
2022-12-27T02:57:03.330Z,4.30
2022-12-27T02:59:35.161Z,4.30
2022-12-27T03:02:34.495Z,4.30
2022-12-27T03:05:16.171Z,4.30
2022-12-27T03:07:51.869Z,4.30
2022-12-27T03:10:53.704Z,4.30
2022-12-27T03:13:51.277Z,4.30
2022-12-27T03:16:20.860Z,4.30
2022-12-27T03:18:59.523Z,4.40
2022-12-27T03:21:46.993Z,4.40
2022-12-27T03:24:33.374Z,4.40
2022-12-27T03:27:00.286Z,4.40
2022-12-27T03:29:45.620Z,4.40
2022-12-27T03:32:47.844Z,4.40
2022-12-27T03:35:18.841Z,4.40
2022-12-27T03:38:04.333Z,4.30
2022-12-27T03:40:38.965Z,4.30
2022-12-27T03:43:13.031Z,4.20
2022-12-27T03:46:15.079Z,4.20
2022-12-27T03:48:56.632Z,4.20
2022-12-27T03:51:24.303Z,4.20
2022-12-27T03:53:52.264Z,4.10
2022-12-27T03:56:22.415Z,4.10
2022-12-27T03:58:49.569Z,4.10
2022-12-27T04:01:16.536Z,4.10
2022-12-27T04:03:43.664Z,4.10
2022-12-27T04:06:10.573Z,4.10
2022-12-27T04:08:56.451Z,4.00
2022-12-27T04:11:41.908Z,4.00
2022-12-27T04:14:27.353Z,4.00
2022-12-27T04:17:12.798Z,4.10
2022-12-27T04:19:58.163Z,4.10
2022-12-27T04:22:43.589Z,4.10
2022-12-27T04:25:28.945Z,4.20
2022-12-27T04:28:14.453Z,4.20
2022-12-27T04:30:59.895Z,4.20
2022-12-27T04:33:45.398Z,4.20
2022-12-27T04:36:12.331Z,4.20
2022-12-27T04:38:39.339Z,4.20
2022-12-27T04:41:24.700Z,4.20
2022-12-27T04:44:10.319Z,4.20
2022-12-27T06:03:29.310Z,4.00
2022-12-27T06:06:01.697Z,4.00
2022-12-27T06:08:29.428Z,4.00
2022-12-27T06:11:22.716Z,4.00
2022-12-27T06:13:51.766Z,4.00
2022-12-27T06:16:19.896Z,4.00
2022-12-27T06:18:46.898Z,4.00
2022-12-27T06:21:16.014Z,4.00
2022-12-27T06:23:44.757Z,4.00
2022-12-27T06:26:13.758Z,4.00
2022-12-27T06:28:40.650Z,4.00
2022-12-27T06:31:07.567Z,4.00
2022-12-27T06:33:35.371Z,4.00
2022-12-27T06:36:12.392Z,4.00
2022-12-27T06:38:39.436Z,4.00
2022-12-27T06:41:09.049Z,3.90
2022-12-27T06:43:36.257Z,3.90
2022-12-27T06:46:05.200Z,3.90
2022-12-27T06:48:32.207Z,3.90
2022-12-27T06:50:59.227Z,3.90
2022-12-27T06:53:26.139Z,3.90
2022-12-27T06:55:53.100Z,3.80
2022-12-27T06:58:20.031Z,3.80
2022-12-27T07:00:47.063Z,3.80
2022-12-27T07:03:14.191Z,3.70
2022-12-27T07:05:41.855Z,3.70
2022-12-27T07:08:08.747Z,3.70
2022-12-27T07:10:36.278Z,3.60
2022-12-27T07:13:03.950Z,3.60
2022-12-27T07:15:30.920Z,3.60
2022-12-27T07:17:57.812Z,3.60
2022-12-27T07:20:24.747Z,3.60
2022-12-27T07:22:51.644Z,3.60
2022-12-27T07:25:18.821Z,3.60
2022-12-27T07:27:45.703Z,3.60
2022-12-27T07:30:12.664Z,3.60
2022-12-27T07:32:39.565Z,3.70
2022-12-27T07:35:06.614Z,3.70
2022-12-27T07:37:33.541Z,3.70
2022-12-27T07:40:00.662Z,3.70
2022-12-27T07:42:28.842Z,3.80
2022-12-27T07:44:55.792Z,3.80
2022-12-27T07:47:22.756Z,3.80
2022-12-27T07:49:49.677Z,3.80
2022-12-27T07:52:16.602Z,3.90
2022-12-27T07:54:43.481Z,3.90
2022-12-27T07:57:10.413Z,3.90
2022-12-27T07:59:37.322Z,4.00
2022-12-27T08:02:04.428Z,4.00
2022-12-27T08:04:33.035Z,4.00
2022-12-27T08:07:16.020Z,4.00
2022-12-27T08:09:44.214Z,4.00
2022-12-27T08:12:11.432Z,4.00
2022-12-27T08:14:40.016Z,4.00
2022-12-27T08:17:11.808Z,4.00
2022-12-27T08:19:38.723Z,4.00
2022-12-27T08:22:05.638Z,4.00
2022-12-27T08:24:32.706Z,4.00
2022-12-27T08:26:59.642Z,4.00
2022-12-27T08:29:26.588Z,4.00
2022-12-27T08:31:53.719Z,4.00
2022-12-27T08:34:20.963Z,4.00
2022-12-27T08:36:55.899Z,4.00
2022-12-27T08:39:23.282Z,4.10
2022-12-27T08:41:50.525Z,4.10
2022-12-27T08:44:17.691Z,4.10
2022-12-27T08:46:44.754Z,4.20
2022-12-27T08:49:11.696Z,4.10
2022-12-27T08:51:41.254Z,4.10
2022-12-27T08:54:08.898Z,4.10
2022-12-27T08:56:35.945Z,4.20
2022-12-27T08:59:03.098Z,4.20
2022-12-27T09:01:30.170Z,4.10
2022-12-27T09:03:57.322Z,4.10
2022-12-27T09:06:24.669Z,4.10
2022-12-27T09:08:52.444Z,4.10
2022-12-27T09:11:23.567Z,4.10
2022-12-27T09:13:50.901Z,4.10
2022-12-27T09:16:19.930Z,4.20
2022-12-27T09:18:52.354Z,4.20
2022-12-27T09:21:20.756Z,4.20
2022-12-27T09:23:48.231Z,4.30
2022-12-27T09:26:20.441Z,4.40
2022-12-27T09:28:47.719Z,4.40
2022-12-27T09:31:15.785Z,4.50
2022-12-27T09:33:43.102Z,4.50
2022-12-27T09:36:14.953Z,4.60
2022-12-27T09:38:42.564Z,4.60
2022-12-27T09:41:37.712Z,4.60
2022-12-27T09:44:21.878Z,4.70
2022-12-27T09:46:59.046Z,4.70
2022-12-27T09:49:57.482Z,4.80
2022-12-27T09:52:35.137Z,4.90
2022-12-27T09:55:22.126Z,4.90
2022-12-27T09:57:49.499Z,5.00
2022-12-27T10:00:19.775Z,5.00
2022-12-27T10:03:05.998Z,5.00
2022-12-27T10:05:34.198Z,5.10
2022-12-27T10:08:39.730Z,5.20
2022-12-27T10:11:36.304Z,5.30
2022-12-27T10:14:17.858Z,5.30
2022-12-27T10:17:32.938Z,5.40
2022-12-27T10:20:18.852Z,5.50
2022-12-27T10:22:53.729Z,5.60
2022-12-27T10:25:22.352Z,5.60
2022-12-27T10:27:50.970Z,5.70
2022-12-27T10:30:22.680Z,5.80
2022-12-27T10:32:49.964Z,5.80
2022-12-27T10:35:19.705Z,5.80
2022-12-27T10:37:47.657Z,5.80
2022-12-27T10:40:34.368Z,5.80
2022-12-27T10:43:06.405Z,5.90
2022-12-27T10:45:39.258Z,5.90
2022-12-27T10:48:28.842Z,5.90
2022-12-27T10:51:09.811Z,5.90
2022-12-27T10:54:03.168Z,6.00
2022-12-27T10:56:35.774Z,6.00
2022-12-27T10:59:24.026Z,6.00
2022-12-27T11:02:00.810Z,5.90
2022-12-27T11:04:29.440Z,5.80
2022-12-27T11:07:02.317Z,5.70
2022-12-27T11:09:30.756Z,5.60
2022-12-27T11:12:33.181Z,5.60
2022-12-27T11:15:10.194Z,5.70
2022-12-27T11:17:44.127Z,5.70
2022-12-27T11:20:25.323Z,5.70
2022-12-27T11:22:56.216Z,5.70
2022-12-27T11:25:23.107Z,5.70
2022-12-27T11:27:52.849Z,5.80
2022-12-27T11:30:29.130Z,5.80
2022-12-27T11:32:56.068Z,5.80
2022-12-27T11:35:23.079Z,5.90
2022-12-27T11:37:50.033Z,5.90
2022-12-27T11:40:27.518Z,5.90
2022-12-27T11:43:04.355Z,5.90
2022-12-27T11:45:50.052Z,5.90
2022-12-27T11:48:28.423Z,5.80
2022-12-27T11:51:22.505Z,5.90
2022-12-27T11:54:11.133Z,6.00
2022-12-27T11:56:45.726Z,6.00
2022-12-27T11:59:47.909Z,6.00
2022-12-27T12:02:39.826Z,6.00
2022-12-27T12:05:44.369Z,6.00
2022-12-27T12:08:23.227Z,6.00
2022-12-27T12:11:05.868Z,6.00
2022-12-27T12:13:42.685Z,6.00
2022-12-27T12:16:34.299Z,6.10
2022-12-27T12:19:12.953Z,6.10
2022-12-27T12:22:01.042Z,6.30
2022-12-27T12:24:30.847Z,6.30
2022-12-27T12:27:26.822Z,6.40
2022-12-27T12:30:16.116Z,6.50
2022-12-27T12:33:20.477Z,6.40
2022-12-27T12:35:59.554Z,6.40
2022-12-27T12:38:46.904Z,6.30
2022-12-27T12:41:39.920Z,6.30
2022-12-27T12:44:18.083Z,6.40
2022-12-27T12:47:08.938Z,6.40
2022-12-27T12:49:51.150Z,6.50
2022-12-27T12:52:41.125Z,6.50
2022-12-27T12:55:32.111Z,6.50
2022-12-27T12:58:13.813Z,6.50
2022-12-27T13:01:02.384Z,6.40
2022-12-27T13:03:35.542Z,6.50
2022-12-27T13:06:41.795Z,6.50
2022-12-27T13:09:47.402Z,6.60
2022-12-27T13:12:25.359Z,6.60
2022-12-27T13:15:00.745Z,6.50
2022-12-27T13:17:40.642Z,6.50
2022-12-27T13:20:18.029Z,6.50
2022-12-27T13:23:00.129Z,6.50
2022-12-27T13:25:29.176Z,6.50
2022-12-27T13:27:55.957Z,6.50
2022-12-27T13:30:24.648Z,6.40
2022-12-27T13:33:07.612Z,6.40
2022-12-27T13:35:57.125Z,6.50
2022-12-27T13:38:48.891Z,6.40
2022-12-27T13:42:14.755Z,6.50
2022-12-27T13:44:54.503Z,6.50
2022-12-27T13:47:54.770Z,6.50
2022-12-27T13:50:31.991Z,6.50
2022-12-27T13:53:18.889Z,6.50
2022-12-27T13:56:14.663Z,6.50
2022-12-27T13:58:59.702Z,6.50
2022-12-27T14:01:29.718Z,6.50
2022-12-27T14:04:32.068Z,6.50
2022-12-27T14:07:08.436Z,6.50
2022-12-27T14:09:56.914Z,6.40
2022-12-27T14:12:47.914Z,6.50
2022-12-27T14:15:18.065Z,6.50
2022-12-27T14:17:54.682Z,6.50
2022-12-27T14:20:58.576Z,6.50
2022-12-27T14:23:44.393Z,6.50
2022-12-27T14:26:48.841Z,6.50
2022-12-27T14:29:21.644Z,6.50
2022-12-27T14:31:57.842Z,6.50
2022-12-27T14:34:53.273Z,6.50
2022-12-27T14:37:52.700Z,6.50
2022-12-27T14:40:35.153Z,6.50
2022-12-27T14:43:33.949Z,6.50
2022-12-27T14:46:22.668Z,6.50
2022-12-27T14:49:13.877Z,6.50
2022-12-27T14:52:12.070Z,6.40
2022-12-27T14:54:45.777Z,6.40
2022-12-27T14:57:17.576Z,6.40
2022-12-27T14:59:50.808Z,6.40
2022-12-27T15:02:29.818Z,6.40
2022-12-27T15:05:11.459Z,6.40
2022-12-27T15:08:24.326Z,6.30
2022-12-27T15:11:02.276Z,6.30
2022-12-27T15:13:51.137Z,6.30
2022-12-27T15:16:44.699Z,6.30
2022-12-27T15:19:30.620Z,6.30
2022-12-27T15:22:26.903Z,6.20
2022-12-27T15:25:15.309Z,6.20
2022-12-27T15:27:52.196Z,6.20
2022-12-27T15:30:24.679Z,6.20
2022-12-27T15:33:20.834Z,6.20
2022-12-27T15:35:59.864Z,6.20
2022-12-27T15:38:59.351Z,6.20
2022-12-27T15:42:03.550Z,6.20
2022-12-27T15:44:46.105Z,6.20
2022-12-27T15:47:25.308Z,6.20
2022-12-27T15:50:35.705Z,6.20
2022-12-27T15:53:16.791Z,6.20
2022-12-27T15:56:17.813Z,6.20
2022-12-27T15:58:44.986Z,6.20
2022-12-27T16:01:23.908Z,6.20
2022-12-27T16:03:53.506Z,6.20
2022-12-27T16:06:35.871Z,6.30
2022-12-27T16:09:20.914Z,6.30
2022-12-27T16:12:13.190Z,6.30
2022-12-27T16:14:41.479Z,6.30
2022-12-27T16:17:30.443Z,6.30
2022-12-27T16:20:12.218Z,6.40
2022-12-27T16:22:41.728Z,6.40
2022-12-27T16:25:33.637Z,6.40
2022-12-27T16:28:09.622Z,6.40
2022-12-27T16:30:49.791Z,6.30
2022-12-27T16:33:30.884Z,6.30
2022-12-27T16:36:22.093Z,6.30
2022-12-27T16:39:05.323Z,6.30
2022-12-27T16:41:54.860Z,6.30
2022-12-27T16:44:24.764Z,6.30
2022-12-27T16:47:30.975Z,6.30
2022-12-27T16:50:19.733Z,6.30
2022-12-27T16:52:47.638Z,6.30
2022-12-27T16:55:52.076Z,6.30
2022-12-27T16:58:29.027Z,6.30
2022-12-27T17:01:00.807Z,6.30
2022-12-27T17:03:36.976Z,6.30
2022-12-27T17:06:33.282Z,6.30
2022-12-27T17:09:10.507Z,6.30
2022-12-27T17:11:43.413Z,6.30
2022-12-27T17:14:26.031Z,6.30
2022-12-27T17:17:14.541Z,6.30
2022-12-27T17:19:55.698Z,6.30
2022-12-27T17:22:23.318Z,6.30
2022-12-27T17:24:56.565Z,6.20
2022-12-27T17:28:00.668Z,6.20
2022-12-27T17:30:45.094Z,6.20
2022-12-27T17:33:48.133Z,6.20
2022-12-27T17:36:23.985Z,6.20
2022-12-27T17:38:55.753Z,6.20
2022-12-27T17:42:05.712Z,6.20
2022-12-27T17:44:47.688Z,6.20
2022-12-27T17:47:42.578Z,6.30
2022-12-27T17:50:15.253Z,6.30
2022-12-27T17:53:00.752Z,6.30
2022-12-27T17:55:47.083Z,6.30
2022-12-27T17:58:16.348Z,6.30
2022-12-27T18:00:56.312Z,6.30
2022-12-27T18:03:23.602Z,6.40
2022-12-27T18:05:50.864Z,6.30
2022-12-27T18:08:28.261Z,6.30
2022-12-27T18:10:56.273Z,6.40
2022-12-27T18:13:24.471Z,6.40
2022-12-27T18:15:51.585Z,6.40
2022-12-27T18:18:28.477Z,6.40
2022-12-27T18:20:58.177Z,6.50
2022-12-27T18:23:25.663Z,6.50
2022-12-27T18:25:55.531Z,6.60
2022-12-27T18:28:33.439Z,6.50
2022-12-27T18:31:13.251Z,6.50
2022-12-27T18:33:57.998Z,6.60
2022-12-27T18:36:29.371Z,6.70
2022-12-27T18:39:10.831Z,6.70
2022-12-27T18:41:48.018Z,6.70
2022-12-27T18:44:23.048Z,6.70
2022-12-27T18:46:58.083Z,6.70
2022-12-27T18:49:27.170Z,6.70
2022-12-27T18:51:55.160Z,6.80
2022-12-27T18:54:27.987Z,6.70
2022-12-27T18:56:56.113Z,6.70
2022-12-27T18:59:26.514Z,6.80
2022-12-27T19:01:54.641Z,6.80
2022-12-27T19:04:22.856Z,6.80
2022-12-27T19:07:08.239Z,6.80
2022-12-27T19:09:40.845Z,6.80
2022-12-27T19:12:17.868Z,6.80
2022-12-27T19:14:45.357Z,6.70
2022-12-27T19:17:26.195Z,6.70
2022-12-27T19:19:55.062Z,6.70
2022-12-27T19:22:35.997Z,6.70
2022-12-27T19:25:14.778Z,6.60
2022-12-27T19:27:41.731Z,6.60
2022-12-27T19:30:51.425Z,6.60
2022-12-27T19:33:25.394Z,6.60
2022-12-27T19:35:52.631Z,6.50
2022-12-27T19:38:29.660Z,6.50
2022-12-27T19:41:03.345Z,6.50
2022-12-27T19:43:35.832Z,6.50
2022-12-27T19:46:02.786Z,6.50
2022-12-27T19:48:29.803Z,6.50
2022-12-27T19:50:56.706Z,6.40
2022-12-27T19:53:46.281Z,6.40
2022-12-27T19:56:13.384Z,6.40
2022-12-27T19:58:40.326Z,6.30
2022-12-27T20:01:07.350Z,6.30
2022-12-27T20:03:34.292Z,6.30
2022-12-27T20:06:13.693Z,6.30
2022-12-27T20:08:45.488Z,6.20
2022-12-27T20:11:20.797Z,6.20
2022-12-27T20:13:47.797Z,6.20
2022-12-27T20:16:16.595Z,6.20
2022-12-27T20:18:44.033Z,6.10
2022-12-27T20:21:16.400Z,6.20
2022-12-27T20:23:43.540Z,6.10
2022-12-27T20:26:10.939Z,6.10
2022-12-27T20:28:37.874Z,6.10
2022-12-27T20:31:13.284Z,6.10
2022-12-27T20:33:40.310Z,6.10
2022-12-27T20:36:07.932Z,6.20
2022-12-27T20:38:36.068Z,6.20
2022-12-27T20:41:13.540Z,6.20
2022-12-27T20:43:40.998Z,6.20
2022-12-27T20:46:12.996Z,6.20
2022-12-27T20:48:41.098Z,6.20
2022-12-27T20:51:13.780Z,6.20
2022-12-27T20:53:40.704Z,6.20
2022-12-27T20:56:09.057Z,6.30
2022-12-27T20:58:36.347Z,6.30
2022-12-27T21:01:14.682Z,6.30
2022-12-27T21:03:42.202Z,6.30
2022-12-27T21:06:10.265Z,6.30
2022-12-27T21:08:45.591Z,6.30
2022-12-27T21:11:17.947Z,6.40
2022-12-27T21:13:45.690Z,6.40
2022-12-27T21:16:14.752Z,6.30
2022-12-27T21:18:41.751Z,6.40
2022-12-27T21:21:14.947Z,6.30
2022-12-27T21:23:43.490Z,6.40
2022-12-27T21:26:13.547Z,6.40
2022-12-27T21:28:40.518Z,6.40
2022-12-27T21:31:09.061Z,6.40
2022-12-27T21:33:36.138Z,6.40
2022-12-27T21:36:05.618Z,6.40
2022-12-27T21:38:32.665Z,6.40
2022-12-27T21:41:02.698Z,6.40
2022-12-27T21:43:29.935Z,6.30
2022-12-27T21:45:57.565Z,6.40
2022-12-27T21:48:25.157Z,6.40
2022-12-27T21:50:52.135Z,6.40
2022-12-27T21:53:19.561Z,6.40
2022-12-27T21:55:46.732Z,6.40
2022-12-27T21:58:13.650Z,6.40
2022-12-27T22:00:40.613Z,6.40
2022-12-27T22:03:07.824Z,6.40
2022-12-27T22:05:34.999Z,6.50
2022-12-27T22:08:02.244Z,6.50
2022-12-27T22:10:29.192Z,6.50
2022-12-27T22:12:56.183Z,6.50
2022-12-27T22:15:23.168Z,6.50
2022-12-27T22:17:50.503Z,6.50
2022-12-27T22:20:17.749Z,6.50
2022-12-27T22:22:44.846Z,6.50
2022-12-27T22:25:11.848Z,6.50
2022-12-27T22:27:38.818Z,6.50
2022-12-27T22:30:06.579Z,6.50
2022-12-27T22:32:33.585Z,6.50
2022-12-27T22:35:00.686Z,6.50
2022-12-27T22:37:27.773Z,6.50
2022-12-27T22:39:54.755Z,6.50
2022-12-27T22:42:21.813Z,6.50
2022-12-27T22:44:49.018Z,6.40
2022-12-27T22:47:26.244Z,6.30
2022-12-27T22:49:54.613Z,6.30
2022-12-27T22:52:21.574Z,6.20
2022-12-27T22:55:04.990Z,6.10
2022-12-27T22:57:33.243Z,6.10
2022-12-27T23:00:02.370Z,6.10
2022-12-27T23:02:29.417Z,6.00
2022-12-27T23:04:56.502Z,6.00
2022-12-27T23:08:04.644Z,6.00
2022-12-27T23:10:10.421Z,6.00
2022-12-27T23:12:37.714Z,6.00
2022-12-27T23:15:05.033Z,5.90
2022-12-27T23:17:32.107Z,5.90
2022-12-27T23:19:59.118Z,5.90
2022-12-27T23:22:26.155Z,5.90
2022-12-27T23:24:53.118Z,5.80
2022-12-27T23:27:20.096Z,5.80
2022-12-27T23:29:47.252Z,5.80
2022-12-27T23:32:14.333Z,5.80
2022-12-27T23:34:41.240Z,5.80
2022-12-27T23:37:08.232Z,5.80
2022-12-27T23:39:35.149Z,5.80
2022-12-27T23:42:02.153Z,5.80
2022-12-27T23:44:34.016Z,5.80
2022-12-27T23:47:04.325Z,5.80
2022-12-27T23:49:31.839Z,5.80
2022-12-27T23:51:58.926Z,5.80
2022-12-27T23:54:25.891Z,5.80
2022-12-27T23:56:52.851Z,5.80
2022-12-27T23:59:19.932Z,5.80
